Hovedside
METAR-TAF:

METAR-TAF

Lufthavner :

Réunion Roland Garros internasjonale lufthavn

Saint-Denis, Réunion

breddegrad: 20-53S, lengdegrad: 055-31E, høyde over havet: 21 m

Gjeldene værobservasjon

Denne rapporten ble laget for 36 minutter siden, klokken 05:30 UTC
Vind 17 kt fra Sørøst
Temperatur 26°C
Luftfuktighet 61%
Trykk 1020 hPa
Sikt 10 km eller mer

METAR: FMEE 190530Z AUTO 13017KT 9999 NCD 26/18 Q1020 NOSIG

Tid: 10:06 (06:06 UTC)

Varsel

Denne rapporten ble laget for 1 time og 6 minutter siden, klokken 05:00 UTC
Varsel gyldig fra 19. klokken 06 UTC til 20. klokken 12 UTC
Vind 17 kt fra Sørøst
Sikt 10 km eller mer
Få skyer i en høyde av 3000 ft
Midlertidig
fra 19. klokken 06 UTC til 19. klokken 13 UTC
Vind 17 kt fra Øst med vindkast opp mot 27 kt
Midlertidig
fra 20. klokken 06 UTC til 20. klokken 12 UTC
Vind 18 kt fra Øst med vindkast opp mot 28 kt

TAF: FMEE 190500Z 1906/2012 13017KT 9999 FEW030 TEMPO 1906/1913 09017G27KT TEMPO 2006/2012 10018G28KT

Værobservasjoner og værvarsel for over 4000 flyplasser (METAR- og TAF-rapporter).

Tilgjengelige stasjoner er representert av de røde og gule prikkene på kartet.

Hold musepekeren over prikken for å se navnet på stasjonen.

Klikk så for å se værobservasjoner og -varsler.

For å forandre kartet kan du klikke på den grønne knappen med svart kryss for å zoome inn, på den grønne knappen med strek for å zoome ut, eller på de grønne pilene for å se tilstøtende kart.


METAR-TAF: